createdAt,value
2018-04-15T00:00:34.750Z,9.20
2018-04-15T00:01:39.242Z,9.20
2018-04-15T00:02:43.550Z,9.20
2018-04-15T00:03:48.693Z,9.30
2018-04-15T00:04:54.654Z,9.20
2018-04-15T00:05:59.457Z,9.30
2018-04-15T00:07:03.862Z,9.30
2018-04-15T00:08:08.838Z,9.20
2018-04-15T00:09:13.093Z,9.20
2018-04-15T00:10:20.235Z,9.30
2018-04-15T00:11:26.046Z,9.30
2018-04-15T00:12:31.163Z,9.20
2018-04-15T00:13:35.576Z,9.30
2018-04-15T00:14:40.943Z,9.10
2018-04-15T00:15:45.141Z,9.10
2018-04-15T00:16:51.580Z,9.10
2018-04-15T00:17:57.366Z,9.10
2018-04-15T00:19:02.713Z,9.10
2018-04-15T00:20:07.016Z,9.10
2018-04-15T00:21:11.297Z,9.10
2018-04-15T00:22:16.256Z,9.10
2018-04-15T00:23:22.331Z,9.10
2018-04-15T00:24:27.311Z,9.10
2018-04-15T00:25:32.559Z,9.10
2018-04-15T00:26:37.796Z,9.20
2018-04-15T00:27:41.997Z,9.20
2018-04-15T00:28:46.441Z,9.20
2018-04-15T00:29:54.324Z,9.20
2018-04-15T00:30:59.245Z,9.20
2018-04-15T00:32:03.881Z,9.30
2018-04-15T00:33:08.092Z,9.40
2018-04-15T00:34:12.280Z,9.40
2018-04-15T00:35:18.125Z,9.40
2018-04-15T00:36:25.804Z,9.30
2018-04-15T00:37:30.969Z,9.30
2018-04-15T00:38:36.041Z,9.30
2018-04-15T00:39:40.506Z,9.40
2018-04-15T00:40:44.696Z,9.40
2018-04-15T00:41:53.254Z,9.30
2018-04-15T00:42:57.874Z,9.30
2018-04-15T00:44:03.944Z,9.30
2018-04-15T00:45:08.318Z,9.30
2018-04-15T00:46:12.517Z,9.30
2018-04-15T00:47:18.632Z,9.40
2018-04-15T00:48:25.342Z,9.40
2018-04-15T00:49:31.209Z,9.30
2018-04-15T00:50:35.562Z,9.30
2018-04-15T00:51:39.793Z,9.30
2018-04-15T00:52:44.151Z,9.30
2018-04-15T00:54:06.159Z,9.40
2018-04-15T00:55:10.385Z,9.40
2018-04-15T00:56:14.587Z,9.40
2018-04-15T00:57:21.132Z,9.50
2018-04-15T00:58:26.472Z,9.40
2018-04-15T00:59:31.429Z,9.40
2018-04-15T01:00:35.833Z,9.40
2018-04-15T01:01:40.161Z,9.40
2018-04-15T01:02:44.359Z,9.40
2018-04-15T01:03:50.157Z,9.50
2018-04-15T01:04:55.140Z,9.50
2018-04-15T01:06:00.097Z,9.50
2018-04-15T01:07:04.593Z,9.50
2018-04-15T01:08:08.909Z,9.60
2018-04-15T01:09:13.105Z,9.50
2018-04-15T01:10:21.847Z,9.60
2018-04-15T01:11:28.162Z,9.60
2018-04-15T01:12:32.705Z,9.60
2018-04-15T01:13:36.991Z,9.60
2018-04-15T01:14:41.198Z,9.60
2018-04-15T01:15:45.428Z,9.60
2018-04-15T01:16:51.248Z,9.60
2018-04-15T01:17:56.670Z,9.50
2018-04-15T01:19:01.562Z,9.60
2018-04-15T01:20:05.878Z,9.50
2018-04-15T01:21:10.111Z,9.50
2018-04-15T01:22:14.339Z,9.50
2018-04-15T01:23:20.897Z,9.50
2018-04-15T01:24:25.924Z,9.50
2018-04-15T01:25:30.348Z,9.50
2018-04-15T01:26:35.373Z,9.50
2018-04-15T01:27:40.394Z,9.50
2018-04-15T01:28:44.770Z,9.50
2018-04-15T01:29:50.226Z,9.50
2018-04-15T01:30:55.822Z,9.60
2018-04-15T01:32:00.184Z,9.60
2018-04-15T01:33:04.701Z,9.60
2018-04-15T01:34:08.922Z,9.60
2018-04-15T01:35:13.272Z,9.60
2018-04-15T01:36:18.755Z,9.70
2018-04-15T01:37:25.558Z,9.70
2018-04-15T01:38:30.146Z,9.80
2018-04-15T01:39:34.662Z,9.80
2018-04-15T01:40:38.875Z,9.80
2018-04-15T01:41:43.101Z,9.80
2018-04-15T01:42:47.830Z,9.80
2018-04-15T01:43:52.839Z,9.70
2018-04-15T01:44:57.505Z,9.60
2018-04-15T01:46:03.011Z,9.40
2018-04-15T01:47:07.221Z,9.40
2018-04-15T01:48:11.467Z,9.30
2018-04-15T01:49:15.675Z,9.20
2018-04-15T01:50:21.382Z,9.10
2018-04-15T01:51:26.391Z,9.10
2018-04-15T01:52:31.042Z,9.10
2018-04-15T01:53:35.438Z,9.10
2018-04-15T01:54:39.657Z,9.20
2018-04-15T01:55:43.858Z,9.20
2018-04-15T01:56:49.781Z,9.30
2018-04-15T01:57:56.750Z,9.20
2018-04-15T01:59:01.203Z,9.20
2018-04-15T02:00:05.496Z,9.20
2018-04-15T02:01:09.718Z,9.30
2018-04-15T02:02:14.853Z,9.40
2018-04-15T02:03:20.643Z,9.40
2018-04-15T02:04:26.258Z,9.40
2018-04-15T02:05:32.033Z,9.40
2018-04-15T02:06:36.475Z,9.40
2018-04-15T02:07:40.829Z,9.40
2018-04-15T02:08:45.549Z,9.60
2018-04-15T02:09:51.895Z,9.70
2018-04-15T02:10:57.039Z,9.70
2018-04-15T02:12:01.943Z,9.70
2018-04-15T02:13:06.933Z,9.50
2018-04-15T02:14:11.123Z,9.50
2018-04-15T02:15:15.329Z,9.50
2018-04-15T02:16:20.011Z,9.50
2018-04-15T02:17:26.038Z,9.40
2018-04-15T02:18:30.959Z,9.40
2018-04-15T02:19:35.417Z,9.40
2018-04-15T02:20:39.681Z,9.40
2018-04-15T02:21:43.873Z,9.30
2018-04-15T02:22:49.134Z,9.40
2018-04-15T02:23:55.355Z,9.40
2018-04-15T02:25:00.512Z,9.40
2018-04-15T02:26:05.122Z,9.40
2018-04-15T02:27:09.326Z,9.40
2018-04-15T02:28:13.528Z,9.30
2018-04-15T02:29:18.159Z,9.30
2018-04-15T02:30:24.677Z,9.30
2018-04-15T02:31:30.072Z,9.10
2018-04-15T02:32:34.378Z,9.20
2018-04-15T02:33:38.691Z,9.10
2018-04-15T02:34:43.094Z,9.10
2018-04-15T02:35:48.853Z,9.10
2018-04-15T02:36:53.710Z,9.00
2018-04-15T02:37:58.572Z,9.10
2018-04-15T02:39:03.807Z,9.20
2018-04-15T02:40:08.805Z,9.10
2018-04-15T02:41:13.029Z,9.10
2018-04-15T02:42:17.966Z,9.10
2018-04-15T02:43:24.184Z,9.20
2018-04-15T02:44:29.178Z,9.20
2018-04-15T02:45:34.461Z,9.20
2018-04-15T02:46:38.833Z,9.20
2018-04-15T02:47:43.120Z,9.20
2018-04-15T02:48:49.334Z,9.10
2018-04-15T02:49:56.227Z,9.10
2018-04-15T02:51:01.176Z,9.10
2018-04-15T02:52:05.562Z,9.10
2018-04-15T02:53:09.886Z,9.10
2018-04-15T02:54:14.078Z,9.10
2018-04-15T02:55:21.939Z,9.10
2018-04-15T02:56:26.810Z,9.10
2018-04-15T02:57:31.696Z,9.10
2018-04-15T02:58:36.002Z,9.10
2018-04-15T02:59:40.964Z,9.10
2018-04-15T03:00:45.158Z,9.10
2018-04-15T03:01:51.554Z,9.00
2018-04-15T03:02:57.485Z,9.00
2018-04-15T03:04:02.747Z,8.90
2018-04-15T03:05:07.318Z,8.90
2018-04-15T03:06:11.627Z,8.90
2018-04-15T03:07:15.835Z,8.90
2018-04-15T03:08:22.770Z,8.90
2018-04-15T03:09:27.664Z,8.90
2018-04-15T03:10:32.160Z,8.90
2018-04-15T03:11:36.516Z,8.90
2018-04-15T03:12:40.806Z,8.90
2018-04-15T03:13:45.026Z,8.90
2018-04-15T03:14:51.558Z,8.90
2018-04-15T03:15:56.601Z,8.90
2018-04-15T03:17:01.579Z,8.90
2018-04-15T03:18:06.624Z,8.90
2018-04-15T03:19:11.694Z,8.90
2018-04-15T03:20:15.911Z,8.90
2018-04-15T03:21:21.799Z,8.90
2018-04-15T03:22:27.166Z,8.90
2018-04-15T03:23:32.420Z,8.90
2018-04-15T03:24:36.666Z,8.90
2018-04-15T03:25:40.874Z,8.90
2018-04-15T03:26:45.097Z,8.90
2018-04-15T03:27:50.750Z,8.80
2018-04-15T03:28:55.998Z,8.80
2018-04-15T03:30:00.755Z,8.80
2018-04-15T03:31:05.914Z,8.80
2018-04-15T03:32:10.140Z,8.80
2018-04-15T03:33:14.505Z,8.80
2018-04-15T03:34:19.512Z,8.80
2018-04-15T03:35:25.346Z,8.80
2018-04-15T03:36:29.881Z,8.80
2018-04-15T03:37:34.684Z,8.70
2018-04-15T03:38:39.704Z,8.80
2018-04-15T03:39:43.904Z,8.80
2018-04-15T03:40:49.258Z,8.80
2018-04-15T03:41:55.014Z,8.80
2018-04-15T03:43:00.929Z,8.80
2018-04-15T03:44:05.598Z,8.80
2018-04-15T03:45:09.815Z,8.80
2018-04-15T03:46:14.799Z,8.90
2018-04-15T03:47:21.266Z,8.90
2018-04-15T03:48:26.275Z,8.90
2018-04-15T03:49:30.624Z,8.80
2018-04-15T03:50:34.940Z,8.80
2018-04-15T03:51:39.334Z,8.80
2018-04-15T03:52:43.537Z,8.80
2018-04-15T03:53:49.258Z,8.80
2018-04-15T03:54:55.980Z,8.80
2018-04-15T03:56:01.647Z,8.80
2018-04-15T03:57:06.300Z,8.80
2018-04-15T03:58:10.579Z,8.90
2018-04-15T03:59:15.640Z,8.80
2018-04-15T04:00:24.078Z,8.80
2018-04-15T04:01:29.309Z,8.80
2018-04-15T04:02:34.557Z,8.80
2018-04-15T04:03:38.833Z,8.80
2018-04-15T04:04:43.042Z,8.80
2018-04-15T04:05:51.303Z,8.90
2018-04-15T04:06:56.911Z,8.80
2018-04-15T04:08:02.465Z,8.80
2018-04-15T04:09:07.876Z,8.80
2018-04-15T04:10:12.078Z,8.80
2018-04-15T04:11:18.268Z,8.80
2018-04-15T04:12:25.955Z,8.70
2018-04-15T04:13:31.794Z,8.80
2018-04-15T04:14:36.536Z,8.80
2018-04-15T04:15:41.029Z,8.80
2018-04-15T04:16:45.348Z,8.80
2018-04-15T04:18:08.832Z,8.80
2018-04-15T04:21:15.585Z,8.70
2018-04-15T04:22:41.008Z,8.70
2018-04-15T04:24:04.422Z,8.70
2018-04-15T04:27:00.448Z,8.70
2018-04-15T04:28:07.640Z,8.70
2018-04-15T04:29:12.635Z,8.70
2018-04-15T04:30:17.877Z,8.70
2018-04-15T04:31:28.020Z,8.70
2018-04-15T04:32:37.043Z,8.70
2018-04-15T04:33:41.287Z,8.80
2018-04-15T04:34:45.514Z,8.80
2018-04-15T04:35:56.923Z,8.80
2018-04-15T04:37:03.613Z,8.80
2018-04-15T04:38:09.563Z,8.80
2018-04-15T04:39:13.807Z,8.80
2018-04-15T04:40:25.519Z,8.80
2018-04-15T04:41:33.107Z,8.80
2018-04-15T04:42:38.561Z,8.80
2018-04-15T04:43:43.011Z,8.80
2018-04-15T04:44:51.150Z,8.80
2018-04-15T04:45:58.633Z,8.80
2018-04-15T04:47:06.144Z,8.80
2018-04-15T04:48:11.177Z,8.80
2018-04-15T04:49:15.385Z,8.80
2018-04-15T04:50:27.432Z,8.80
2018-04-15T04:51:34.736Z,8.80
2018-04-15T04:52:39.271Z,8.90
2018-04-15T04:53:43.473Z,8.80
2018-04-15T04:54:55.138Z,8.80
2018-04-15T04:56:02.486Z,8.80
2018-04-15T04:57:07.130Z,8.80
2018-04-15T04:58:11.356Z,8.90
2018-04-15T04:59:15.579Z,8.90
2018-04-15T05:00:27.093Z,8.80
2018-04-15T05:01:34.410Z,8.90
2018-04-15T05:02:38.841Z,8.90
2018-04-15T05:03:43.069Z,8.90
2018-04-15T05:04:50.672Z,8.90
2018-04-15T05:05:59.076Z,8.90
2018-04-15T05:07:05.112Z,8.80
2018-04-15T05:08:09.775Z,8.90
2018-04-15T05:09:14.116Z,8.90
2018-04-15T05:10:33.505Z,8.90
2018-04-15T05:11:38.215Z,8.90
2018-04-15T05:12:42.527Z,8.90
2018-04-15T05:13:48.475Z,9.00
2018-04-15T05:15:03.741Z,8.90
2018-04-15T05:16:08.396Z,9.00
2018-04-15T05:17:12.665Z,9.00
2018-04-15T05:19:38.328Z,9.00
2018-04-15T05:20:42.651Z,9.00
2018-04-15T05:21:47.040Z,9.00
2018-04-15T05:22:57.757Z,9.00
2018-04-15T05:24:06.218Z,8.90
2018-04-15T05:25:10.481Z,9.00
2018-04-15T05:26:14.754Z,9.00
2018-04-15T05:27:25.527Z,9.00
2018-04-15T05:28:32.402Z,8.90
2018-04-15T05:29:38.014Z,8.90
2018-04-15T05:30:42.985Z,9.00
2018-04-15T05:31:53.218Z,9.00
2018-04-15T05:33:00.988Z,9.00
2018-04-15T05:34:06.436Z,9.00
2018-04-15T05:35:10.667Z,9.00
2018-04-15T05:36:14.874Z,9.00
2018-04-15T05:37:27.442Z,9.00
2018-04-15T05:38:33.871Z,9.00
2018-04-15T05:39:38.170Z,9.10
2018-04-15T05:40:42.396Z,9.10
2018-04-15T05:41:46.587Z,9.10
2018-04-15T05:42:57.889Z,9.10
2018-04-15T05:44:04.297Z,9.20
2018-04-15T05:45:09.275Z,9.20
2018-04-15T05:46:13.566Z,9.20
2018-04-15T05:47:21.716Z,9.10
2018-04-15T05:48:30.190Z,9.20
2018-04-15T05:49:35.717Z,9.10
2018-04-15T05:50:39.936Z,9.10
2018-04-15T05:51:44.146Z,9.20
2018-04-15T05:52:54.786Z,9.20
2018-04-15T05:54:01.653Z,9.20
2018-04-15T05:55:06.908Z,9.20
2018-04-15T05:56:11.117Z,9.20
2018-04-15T05:57:15.425Z,9.30
2018-04-15T05:58:29.737Z,9.30
2018-04-15T05:59:35.476Z,9.30
2018-04-15T06:00:40.675Z,9.30
2018-04-15T06:01:44.888Z,9.30
2018-04-15T06:02:54.452Z,9.30
2018-04-15T06:04:01.678Z,9.30
2018-04-15T06:05:06.872Z,9.30
2018-04-15T06:06:11.553Z,9.30
2018-04-15T06:07:15.758Z,9.30
2018-04-15T06:08:27.248Z,9.30
2018-04-15T06:09:33.397Z,9.30
2018-04-15T06:10:37.772Z,9.30
2018-04-15T06:11:42.009Z,9.40
2018-04-15T06:12:50.866Z,9.30
2018-04-15T06:14:00.152Z,9.30
2018-04-15T06:15:06.005Z,9.30
2018-04-15T06:16:11.023Z,9.40
2018-04-15T06:17:15.375Z,9.40
2018-04-15T06:18:26.084Z,9.40
2018-04-15T06:19:33.658Z,9.40
2018-04-15T06:20:37.886Z,9.40
2018-04-15T06:21:42.142Z,9.40
2018-04-15T06:22:49.388Z,9.50
2018-04-15T06:23:57.043Z,9.50
2018-04-15T06:25:02.173Z,9.50
2018-04-15T06:26:07.210Z,9.50
2018-04-15T06:27:11.503Z,9.50
2018-04-15T06:28:15.718Z,9.50
2018-04-15T06:29:25.575Z,9.50
2018-04-15T06:30:34.056Z,9.50
2018-04-15T06:31:38.348Z,9.50
2018-04-15T06:32:42.684Z,9.50
2018-04-15T06:33:48.101Z,9.50
2018-04-15T06:34:54.801Z,9.50
2018-04-15T06:36:01.117Z,9.50
2018-04-15T06:37:05.409Z,9.50
2018-04-15T06:38:09.783Z,9.60
2018-04-15T06:39:14.100Z,9.70
2018-04-15T06:40:21.965Z,9.70
2018-04-15T06:41:28.338Z,9.70
2018-04-15T06:42:33.273Z,9.70
2018-04-15T06:43:37.561Z,9.70
2018-04-15T06:44:41.810Z,9.70
2018-04-15T06:45:46.025Z,9.70
2018-04-15T06:46:54.847Z,9.70
2018-04-15T06:48:00.145Z,9.80
2018-04-15T06:49:05.370Z,9.80
2018-04-15T06:50:09.602Z,9.90
2018-04-15T06:51:14.592Z,9.90
2018-04-15T06:52:22.328Z,9.90
2018-04-15T06:53:27.845Z,9.90
2018-04-15T06:54:34.036Z,10.00
2018-04-15T06:55:38.554Z,10.00
2018-04-15T06:56:42.765Z,9.90
2018-04-15T06:57:47.770Z,10.00
2018-04-15T06:58:56.576Z,10.00
2018-04-15T07:00:04.227Z,9.90
2018-04-15T07:01:08.639Z,9.90
2018-04-15T07:02:12.836Z,9.90
2018-04-15T07:03:19.428Z,9.90
2018-04-15T07:04:27.021Z,9.90
2018-04-15T07:05:33.045Z,9.90
2018-04-15T07:06:37.367Z,9.90
2018-04-15T07:07:41.569Z,9.90
2018-04-15T07:08:46.568Z,9.90
2018-04-15T07:10:00.329Z,9.90
2018-04-15T07:11:05.722Z,9.90
2018-04-15T07:12:09.937Z,9.90
2018-04-15T07:13:14.398Z,9.90
2018-04-15T07:14:24.320Z,9.90
2018-04-15T07:15:31.606Z,9.90
2018-04-15T07:16:36.019Z,9.90
2018-04-15T07:17:41.043Z,10.00
2018-04-15T07:18:48.640Z,10.00
2018-04-15T07:19:55.876Z,10.00
2018-04-15T07:21:06.237Z,10.10
2018-04-15T07:22:12.371Z,10.00
2018-04-15T07:23:16.584Z,10.10
2018-04-15T07:24:23.548Z,10.10
2018-04-15T07:25:29.523Z,10.20
2018-04-15T07:26:33.852Z,10.20
2018-04-15T07:27:38.289Z,10.30
2018-04-15T07:28:42.565Z,10.30
2018-04-15T07:29:50.319Z,10.30
2018-04-15T07:30:56.034Z,10.30
2018-04-15T07:32:02.055Z,10.30
2018-04-15T07:33:06.333Z,10.30
2018-04-15T07:34:11.304Z,10.30
2018-04-15T07:35:15.587Z,10.30
2018-04-15T07:36:23.871Z,10.30
2018-04-15T07:37:29.175Z,10.30
2018-04-15T07:38:34.743Z,10.30
2018-04-15T07:39:39.803Z,10.30
2018-04-15T07:40:44.106Z,10.30
2018-04-15T07:41:50.905Z,10.30
2018-04-15T07:42:57.136Z,10.30
2018-04-15T07:44:02.291Z,10.30
2018-04-15T07:45:06.524Z,10.40
2018-04-15T07:46:10.743Z,10.40
2018-04-15T07:47:15.014Z,10.40
2018-04-15T07:48:20.351Z,10.40
2018-04-15T07:49:25.980Z,10.40
2018-04-15T07:50:31.993Z,10.40
2018-04-15T07:51:36.403Z,10.40
2018-04-15T07:52:40.633Z,10.40
2018-04-15T07:53:44.883Z,10.50
2018-04-15T07:54:55.115Z,10.50
2018-04-15T07:56:01.321Z,10.50
2018-04-15T07:57:06.045Z,10.60
2018-04-15T07:58:10.253Z,10.60
2018-04-15T07:59:14.675Z,10.50
2018-04-15T08:00:23.899Z,10.50
2018-04-15T08:01:30.258Z,10.50
2018-04-15T08:02:34.887Z,10.60
2018-04-15T08:03:39.337Z,10.70
2018-04-15T08:04:43.568Z,10.80
2018-04-15T08:05:52.942Z,10.90
2018-04-15T08:06:58.776Z,10.90
2018-04-15T08:08:03.357Z,10.90
2018-04-15T08:09:07.660Z,11.00
2018-04-15T08:10:11.884Z,11.00
2018-04-15T08:11:17.605Z,11.10
2018-04-15T08:12:23.697Z,11.10
2018-04-15T08:13:28.466Z,11.10
2018-04-15T08:14:33.076Z,11.20
2018-04-15T08:15:37.284Z,11.10
2018-04-15T08:16:41.522Z,11.20
2018-04-15T08:17:45.807Z,11.20
2018-04-15T08:18:53.837Z,11.10
2018-04-15T08:19:58.817Z,11.10
2018-04-15T08:21:03.512Z,11.10
2018-04-15T08:22:08.579Z,11.10
2018-04-15T08:23:12.892Z,11.10
2018-04-15T08:24:17.422Z,11.10
2018-04-15T08:25:24.601Z,11.10
2018-04-15T08:26:30.548Z,11.20
2018-04-15T08:27:35.146Z,11.20
2018-04-15T08:28:39.381Z,11.20
2018-04-15T08:29:43.706Z,11.40
2018-04-15T08:30:48.963Z,11.50
2018-04-15T08:31:56.137Z,11.70
2018-04-15T08:33:01.310Z,11.90
2018-04-15T08:34:05.686Z,12.10
2018-04-15T08:35:10.683Z,12.50
2018-04-15T08:36:14.892Z,12.40
2018-04-15T08:37:20.149Z,12.50
2018-04-15T08:38:25.684Z,12.70
2018-04-15T08:39:31.352Z,12.70
2018-04-15T08:40:35.890Z,12.70
2018-04-15T08:41:41.211Z,12.80
2018-04-15T08:42:45.424Z,12.70
2018-04-15T08:43:56.064Z,13.00
2018-04-15T08:45:02.219Z,13.00
2018-04-15T08:46:06.681Z,12.90
2018-04-15T08:47:11.834Z,12.90
2018-04-15T08:48:16.049Z,12.90
2018-04-15T08:49:25.864Z,12.80
2018-04-15T08:50:33.606Z,12.90
2018-04-15T08:51:38.010Z,13.10
2018-04-15T08:52:42.230Z,13.10
2018-04-15T08:53:46.547Z,13.20
2018-04-15T08:54:56.571Z,13.40
2018-04-15T08:56:02.376Z,13.30
2018-04-15T08:57:06.751Z,13.40
2018-04-15T08:58:11.142Z,13.60
2018-04-15T08:59:15.352Z,13.70
2018-04-15T09:00:25.145Z,13.70
2018-04-15T09:01:30.790Z,13.70
2018-04-15T09:02:38.238Z,13.80
2018-04-15T09:03:42.670Z,13.80
2018-04-15T09:04:49.702Z,13.80
2018-04-15T09:05:55.184Z,13.70
2018-04-15T09:07:02.355Z,13.70
2018-04-15T09:08:06.672Z,13.70
2018-04-15T09:09:10.873Z,13.70
2018-04-15T09:10:15.080Z,13.60
2018-04-15T09:11:22.686Z,13.60
2018-04-15T09:12:28.356Z,13.70
2018-04-15T09:13:33.238Z,13.70
2018-04-15T09:14:37.465Z,13.70
2018-04-15T09:15:41.670Z,13.60
2018-04-15T09:16:45.934Z,13.60
2018-04-15T09:17:54.161Z,13.70
2018-04-15T09:18:59.466Z,13.70
2018-04-15T09:20:05.066Z,13.70
2018-04-15T09:21:09.360Z,13.80
2018-04-15T09:22:14.368Z,13.90
2018-04-15T09:23:19.929Z,13.90
2018-04-15T09:24:26.521Z,13.90
2018-04-15T09:25:32.314Z,13.90
2018-04-15T09:26:36.558Z,13.90
2018-04-15T09:27:41.550Z,14.10
2018-04-15T09:28:46.607Z,14.10
2018-04-15T09:29:55.798Z,14.30
2018-04-15T09:31:09.768Z,14.40
2018-04-15T09:32:14.759Z,14.50
2018-04-15T09:33:20.229Z,14.50
2018-04-15T09:34:24.935Z,14.70
2018-04-15T09:35:30.081Z,14.80
2018-04-15T09:36:34.639Z,14.90
2018-04-15T09:37:38.865Z,15.10
2018-04-15T09:38:43.674Z,15.10
2018-04-15T09:39:49.115Z,14.90
2018-04-15T09:40:55.717Z,15.00
2018-04-15T09:42:00.184Z,15.00
2018-04-15T09:43:05.182Z,15.10
2018-04-15T09:44:09.491Z,15.10
2018-04-15T09:45:13.714Z,15.20
2018-04-15T09:46:22.047Z,15.40
2018-04-15T09:47:28.972Z,15.60
2018-04-15T09:48:35.037Z,15.50
2018-04-15T09:49:39.268Z,15.60
2018-04-15T09:50:43.473Z,15.70
2018-04-15T09:51:50.870Z,15.80
2018-04-15T09:52:59.221Z,16.00
2018-04-15T09:54:06.808Z,15.90
2018-04-15T09:55:11.005Z,16.00
2018-04-15T09:56:15.206Z,16.10
2018-04-15T09:57:23.658Z,16.40
2018-04-15T09:58:31.892Z,16.20
2018-04-15T09:59:36.353Z,16.20
2018-04-15T10:00:40.565Z,16.20
2018-04-15T10:01:44.995Z,16.10
2018-04-15T10:02:51.763Z,16.00
2018-04-15T10:03:58.052Z,15.80
2018-04-15T10:05:04.288Z,15.60
2018-04-15T10:06:08.521Z,15.60
2018-04-15T10:07:12.748Z,15.60
2018-04-15T10:08:17.564Z,15.70
2018-04-15T10:09:24.213Z,15.80
2018-04-15T10:10:29.545Z,15.80
2018-04-15T10:11:35.278Z,15.50
2018-04-15T10:12:39.477Z,15.50
2018-04-15T10:13:43.685Z,15.40
2018-04-15T10:14:48.722Z,15.40
2018-04-15T10:15:55.436Z,15.30
2018-04-15T10:17:01.082Z,15.30
2018-04-15T10:18:05.783Z,15.30
2018-04-15T10:19:10.008Z,15.30
2018-04-15T10:20:14.422Z,15.20
2018-04-15T10:21:22.038Z,15.20
2018-04-15T10:22:30.042Z,15.20
2018-04-15T10:23:35.283Z,15.20
2018-04-15T10:24:40.252Z,15.40
2018-04-15T10:25:44.460Z,15.30
2018-04-15T10:26:53.290Z,15.40
2018-04-15T10:28:01.351Z,15.60
2018-04-15T10:29:07.136Z,15.80
2018-04-15T10:30:11.486Z,15.90
2018-04-15T10:31:15.826Z,16.10
2018-04-15T10:32:22.465Z,16.30
2018-04-15T10:33:27.913Z,16.30
2018-04-15T10:34:35.741Z,16.50
2018-04-15T10:35:40.174Z,16.60
2018-04-15T10:36:44.474Z,16.60
2018-04-15T10:37:52.867Z,16.70
2018-04-15T10:38:59.475Z,16.70
2018-04-15T10:40:04.529Z,16.60
2018-04-15T10:41:08.764Z,16.50
2018-04-15T10:42:13.101Z,16.50
2018-04-15T10:43:20.394Z,16.50
2018-04-15T10:44:26.822Z,16.50
2018-04-15T10:45:31.209Z,16.60
2018-04-15T10:46:35.498Z,16.70
2018-04-15T10:47:39.797Z,16.80
2018-04-15T10:48:44.085Z,16.90
2018-04-15T10:49:54.631Z,17.10
2018-04-15T10:51:03.224Z,17.20
2018-04-15T10:52:08.004Z,17.20
2018-04-15T10:53:12.227Z,17.20
2018-04-15T10:54:16.533Z,17.20
2018-04-15T10:55:24.773Z,17.20
2018-04-15T10:56:31.393Z,17.30
2018-04-15T10:57:36.227Z,17.40
2018-04-15T10:58:40.499Z,17.70
2018-04-15T10:59:44.733Z,17.80
2018-04-15T11:00:51.330Z,17.60
2018-04-15T11:01:57.084Z,17.60
2018-04-15T11:03:04.365Z,17.60
2018-04-15T11:04:08.602Z,17.60
2018-04-15T11:05:12.893Z,17.20
2018-04-15T11:06:17.885Z,17.10
2018-04-15T11:07:25.174Z,17.00
2018-04-15T11:08:31.413Z,17.00
2018-04-15T11:09:36.265Z,17.10
2018-04-15T11:10:40.517Z,17.20
2018-04-15T11:11:44.711Z,17.20
2018-04-15T11:12:51.564Z,17.10
2018-04-15T11:13:59.403Z,17.20
2018-04-15T11:15:05.293Z,17.30
2018-04-15T11:16:09.549Z,17.30
2018-04-15T11:17:13.772Z,17.20
2018-04-15T11:18:19.763Z,17.30
2018-04-15T11:19:27.719Z,17.40
2018-04-15T11:20:36.676Z,17.50
2018-04-15T11:21:41.117Z,17.50
2018-04-15T11:22:45.337Z,17.80
2018-04-15T11:23:51.789Z,18.40
2018-04-15T11:24:57.168Z,18.30
2018-04-15T11:26:03.165Z,18.70
2018-04-15T11:27:08.160Z,18.70
2018-04-15T11:28:12.443Z,18.70
2018-04-15T11:29:16.650Z,18.90
2018-04-15T11:30:21.351Z,19.00
2018-04-15T11:31:26.456Z,19.00
2018-04-15T11:32:31.257Z,19.10
2018-04-15T11:33:36.327Z,19.20
2018-04-15T11:34:41.695Z,19.10
2018-04-15T11:35:45.895Z,19.10
2018-04-15T11:36:50.599Z,19.10
2018-04-15T11:37:55.512Z,19.00
2018-04-15T11:39:01.653Z,19.30
2018-04-15T11:40:06.208Z,19.20
2018-04-15T11:41:10.442Z,19.30
2018-04-15T11:42:14.640Z,19.40
2018-04-15T11:43:19.659Z,19.50
2018-04-15T11:44:24.525Z,19.50
2018-04-15T11:45:29.441Z,19.40
2018-04-15T11:46:35.997Z,19.50
2018-04-15T11:47:40.613Z,19.50
2018-04-15T11:48:46.106Z,19.70
2018-04-15T11:49:53.921Z,19.40
2018-04-15T11:50:59.183Z,19.30
2018-04-15T11:52:03.942Z,19.10
2018-04-15T11:53:08.239Z,19.30
2018-04-15T11:55:32.847Z,19.20
2018-04-15T11:56:37.114Z,19.20
2018-04-15T11:57:42.082Z,19.30
2018-04-15T11:58:46.301Z,19.30
2018-04-15T11:59:54.485Z,19.40
2018-04-15T12:01:02.286Z,19.50
2018-04-15T12:02:07.353Z,19.50
2018-04-15T12:03:12.048Z,19.60
2018-04-15T12:04:16.330Z,19.60
2018-04-15T12:05:27.233Z,19.40
2018-04-15T12:06:34.720Z,19.40
2018-04-15T12:07:39.252Z,19.30
2018-04-15T12:08:43.852Z,19.40
2018-04-15T12:09:51.077Z,19.40
2018-04-15T12:10:58.185Z,19.40
2018-04-15T12:12:06.238Z,19.60
2018-04-15T12:13:10.625Z,19.60
2018-04-15T12:14:14.908Z,19.70
2018-04-15T12:15:19.922Z,19.60
2018-04-15T12:16:26.872Z,19.10
2018-04-15T12:17:35.420Z,19.10
2018-04-15T12:18:40.710Z,18.60
2018-04-15T12:19:44.914Z,18.60
2018-04-15T12:20:53.601Z,18.50
2018-04-15T12:22:00.812Z,18.30
2018-04-15T12:23:06.363Z,18.40
2018-04-15T12:24:10.599Z,18.40
2018-04-15T12:25:14.796Z,18.50
2018-04-15T12:26:33.050Z,18.50
2018-04-15T12:27:38.646Z,18.70
2018-04-15T12:28:44.293Z,18.70
2018-04-15T12:29:54.086Z,19.00
2018-04-15T12:31:02.492Z,19.10
2018-04-15T12:32:07.424Z,19.00
2018-04-15T12:33:11.624Z,19.30
2018-04-15T12:34:16.604Z,19.40
2018-04-15T12:35:24.347Z,19.20
2018-04-15T12:36:29.232Z,19.30
2018-04-15T12:37:35.915Z,19.40
2018-04-15T12:38:40.123Z,19.60
2018-04-15T12:39:44.316Z,19.80
2018-04-15T12:40:48.940Z,19.90
2018-04-15T12:41:53.853Z,20.00
2018-04-15T12:42:58.989Z,20.10
2018-04-15T12:44:03.870Z,20.20
2018-04-15T12:45:08.227Z,20.40
2018-04-15T12:46:12.486Z,20.60
2018-04-15T12:47:19.181Z,20.70
2018-04-15T12:48:26.896Z,20.90
2018-04-15T12:49:32.397Z,20.50
2018-04-15T12:50:36.710Z,20.50
2018-04-15T12:51:40.949Z,20.30
2018-04-15T12:52:45.950Z,20.00
2018-04-15T12:53:51.134Z,20.00
2018-04-15T12:54:56.410Z,19.90
2018-04-15T12:56:00.877Z,19.90
2018-04-15T12:57:05.296Z,19.90
2018-04-15T12:58:11.897Z,19.80
2018-04-15T12:59:16.215Z,19.80
2018-04-15T13:00:23.281Z,19.80
2018-04-15T13:01:29.505Z,19.60
2018-04-15T13:02:37.747Z,19.60
2018-04-15T13:03:42.367Z,19.60
2018-04-15T13:04:46.615Z,19.50
2018-04-15T13:05:52.078Z,19.40
2018-04-15T13:06:56.482Z,19.40
2018-04-15T13:08:00.876Z,19.40
2018-04-15T13:09:06.155Z,19.30
2018-04-15T13:10:10.359Z,19.00
2018-04-15T13:11:14.614Z,19.00
2018-04-15T13:12:20.816Z,18.90
2018-04-15T13:13:28.191Z,19.00
2018-04-15T13:14:34.649Z,19.00
2018-04-15T13:15:38.879Z,19.20
2018-04-15T13:16:44.019Z,19.40
2018-04-15T13:17:55.242Z,19.40
2018-04-15T13:19:01.154Z,19.50
2018-04-15T13:20:05.741Z,19.70
2018-04-15T13:21:10.030Z,19.80
2018-04-15T13:22:14.327Z,19.90
2018-04-15T13:23:20.480Z,20.00
2018-04-15T13:24:27.172Z,20.00
2018-04-15T13:25:33.873Z,20.00
2018-04-15T13:26:39.030Z,19.70
2018-04-15T13:27:43.342Z,19.60
2018-04-15T13:28:51.067Z,19.50
2018-04-15T13:29:57.338Z,19.50
2018-04-15T13:31:04.678Z,19.70
2018-04-15T13:32:09.216Z,19.70
2018-04-15T13:33:13.464Z,19.80
2018-04-15T13:34:18.866Z,19.80
2018-04-15T13:35:26.353Z,19.80
2018-04-15T13:36:31.669Z,19.90
2018-04-15T13:37:35.976Z,19.80
2018-04-15T13:38:40.171Z,19.60
2018-04-15T13:39:45.142Z,19.40
2018-04-15T13:40:52.118Z,19.30
2018-04-15T13:41:58.658Z,19.40
2018-04-15T13:43:03.934Z,19.30
2018-04-15T13:44:08.142Z,19.20
2018-04-15T13:45:12.359Z,19.30
2018-04-15T13:46:16.590Z,19.30
2018-04-15T13:47:25.610Z,19.50
2018-04-15T13:48:32.594Z,19.50
2018-04-15T13:49:37.565Z,19.50
2018-04-15T13:50:41.873Z,19.50
2018-04-15T13:51:46.539Z,19.50
2018-04-15T13:52:52.891Z,19.50
2018-04-15T13:53:58.531Z,19.40
2018-04-15T13:55:02.935Z,19.30
2018-04-15T13:56:08.044Z,19.20
2018-04-15T13:57:12.306Z,19.10
2018-04-15T13:58:16.675Z,19.10
2018-04-15T13:59:26.810Z,19.00
2018-04-15T14:00:32.478Z,19.00
2018-04-15T14:01:36.804Z,19.00
2018-04-15T14:02:41.005Z,19.00
2018-04-15T14:03:45.211Z,19.00
2018-04-15T14:04:53.059Z,19.00
2018-04-15T14:06:01.801Z,19.10
2018-04-15T14:07:07.319Z,19.10
2018-04-15T14:08:11.567Z,19.20
2018-04-15T14:09:15.761Z,19.30
2018-04-15T14:10:22.104Z,19.50
2018-04-15T14:11:27.608Z,19.80
2018-04-15T14:12:35.692Z,20.20
2018-04-15T14:13:39.902Z,20.20
2018-04-15T14:14:44.119Z,20.50
2018-04-15T14:15:50.807Z,20.50
2018-04-15T14:16:59.009Z,20.30
2018-04-15T14:18:06.605Z,20.20
2018-04-15T14:19:11.852Z,20.30
2018-04-15T14:20:16.047Z,20.30
2018-04-15T14:21:25.045Z,20.60
2018-04-15T14:22:30.754Z,20.70
2018-04-15T14:23:36.609Z,20.90
2018-04-15T14:24:41.629Z,20.40
2018-04-15T14:25:45.843Z,20.40
2018-04-15T14:26:54.321Z,20.10